Time;durP1;ratioP1;P1;durP2;ratioP2;P2;SDS_P1;SDS_P2;PMS_P1;PMS_P2;Temp;Humidity;BMP_temperature;BMP_pressure;BME280_temperature;BME280_humidity;BME280_pressure;Samples;Min_cycle;Max_cycle;Signal;HPM_P1;HPM_P2
2020/12/13 00:01:58;;;;;;;18.10;10.05;;;18.50;83.70;;;;;;5057902;28;20211;-52
2020/12/13 00:04:24;;;;;;;14.27;9.50;;;18.50;83.80;;;;;;5050267;28;20055;-51
2020/12/13 00:06:49;;;;;;;11.85;9.13;;;18.50;83.50;;;;;;5060533;28;20020;-56
2020/12/13 00:09:15;;;;;;;13.07;9.38;;;18.40;83.40;;;;;;5069995;28;20396;-56
2020/12/13 00:11:41;;;;;;;14.43;9.65;;;18.40;83.50;;;;;;5069153;28;20032;-46
2020/12/13 00:14:07;;;;;;;14.75;9.07;;;18.40;83.60;;;;;;5070321;28;20041;-55
2020/12/13 00:16:32;;;;;;;12.73;9.38;;;18.40;83.60;;;;;;5063415;28;20037;-55
2020/12/13 00:18:58;;;;;;;12.73;8.77;;;18.40;83.40;;;;;;5050268;28;20424;-52
2020/12/13 00:21:26;;;;;;;13.55;8.90;;;18.40;83.50;;;;;;5051248;28;20041;-56
2020/12/13 00:23:53;;;;;;;14.02;9.48;;;18.40;83.30;;;;;;5069231;28;20043;-51
2020/12/13 00:26:19;;;;;;;12.95;9.43;;;18.40;83.40;;;;;;5056859;28;20051;-51
2020/12/13 00:28:45;;;;;;;13.00;8.88;;;18.40;83.30;;;;;;5050100;28;20021;-50
2020/12/13 00:31:15;;;;;;;13.15;9.35;;;18.40;83.40;;;;;;5057930;28;20082;-56
2020/12/13 00:33:42;;;;;;;14.38;9.15;;;18.40;83.30;;;;;;5069863;28;20025;-51
2020/12/13 00:36:08;;;;;;;12.35;8.40;;;18.30;83.20;;;;;;5066506;28;20120;-54
2020/12/13 00:38:34;;;;;;;11.73;8.93;;;18.30;83.20;;;;;;5068131;28;20476;-56
2020/12/13 00:41:00;;;;;;;10.73;8.15;;;18.30;83.10;;;;;;5064387;28;20428;-50
2020/12/13 00:43:26;;;;;;;16.17;8.77;;;18.30;83.20;;;;;;5087028;28;20505;-54
2020/12/13 00:45:52;;;;;;;11.40;8.75;;;18.30;83.20;;;;;;5048231;28;20029;-51
2020/12/13 00:48:18;;;;;;;14.02;9.00;;;18.30;83.10;;;;;;5049751;28;20044;-50
2020/12/13 00:50:43;;;;;;;12.32;8.88;;;18.30;83.00;;;;;;5051153;28;20059;-55
2020/12/13 00:53:09;;;;;;;12.82;9.35;;;18.30;83.20;;;;;;5060078;28;20040;-51
2020/12/13 00:55:35;;;;;;;11.90;7.93;;;18.30;83.00;;;;;;5049507;28;20382;-53
2020/12/13 00:58:01;;;;;;;12.65;8.38;;;18.30;83.10;;;;;;5069597;28;20028;-50
2020/12/13 01:00:27;;;;;;;10.43;8.15;;;18.30;82.90;;;;;;5069375;28;20175;-52
2020/12/13 01:02:57;;;;;;;13.80;9.55;;;18.20;82.90;;;;;;5067719;28;20040;-52
2020/12/13 01:05:24;;;;;;;11.63;8.30;;;18.30;82.90;;;;;;5067642;28;20025;-55
2020/12/13 01:07:50;;;;;;;9.55;7.65;;;18.20;82.80;;;;;;5067714;28;20029;-49
2020/12/13 01:10:18;;;;;;;10.35;8.00;;;18.20;82.80;;;;;;5069347;28;20448;-49
2020/12/13 01:12:43;;;;;;;11.73;7.72;;;18.30;82.80;;;;;;5066297;28;20038;-55
2020/12/13 01:15:09;;;;;;;11.13;8.55;;;18.20;83.00;;;;;;5068921;28;20049;-51
2020/12/13 01:17:35;;;;;;;11.23;7.43;;;18.20;82.80;;;;;;5067904;28;20040;-52
2020/12/13 01:20:02;;;;;;;11.73;8.10;;;18.20;82.80;;;;;;5067720;28;20024;-59
2020/12/13 01:22:28;;;;;;;11.20;7.80;;;18.20;82.80;;;;;;5057347;28;20040;-52
2020/12/13 01:24:54;;;;;;;10.77;7.88;;;18.20;82.70;;;;;;5069076;28;20028;-48
2020/12/13 01:27:19;;;;;;;9.80;6.75;;;18.20;82.70;;;;;;5067477;28;20028;-56
2020/12/13 01:29:45;;;;;;;10.80;7.50;;;18.20;82.80;;;;;;5068846;28;20036;-52
2020/12/13 01:32:11;;;;;;;10.90;7.95;;;18.20;82.60;;;;;;5052665;28;20446;-49
2020/12/13 01:34:36;;;;;;;13.07;7.55;;;18.20;82.60;;;;;;5048634;28;20358;-55
2020/12/13 01:37:02;;;;;;;12.63;7.80;;;18.20;82.70;;;;;;5054941;28;20055;-62
2020/12/13 01:39:28;;;;;;;9.73;6.72;;;18.10;82.70;;;;;;5066307;28;20048;-52
2020/12/13 01:41:58;;;;;;;12.10;7.90;;;18.20;82.50;;;;;;5068477;28;20637;-54
2020/12/13 01:44:31;;;;;;;11.00;7.07;;;18.10;82.50;;;;;;5053777;28;20502;-55
2020/12/13 01:46:59;;;;;;;13.02;7.60;;;18.10;82.50;;;;;;5049393;28;20079;-56
2020/12/13 01:49:33;;;;;;;12.10;7.15;;;18.10;82.50;;;;;;5048383;28;20029;-54
2020/12/13 01:52:41;;;;;;;10.95;7.57;;;18.10;82.30;;;;;;5055353;28;20346;-58
2020/12/13 01:55:05;;;;;;;8.65;6.57;;;18.10;82.50;;;;;;5071744;28;20524;-53
2020/12/13 01:57:34;;;;;;;10.35;7.00;;;18.10;82.40;;;;;;5064195;28;20105;-57
2020/12/13 02:00:08;;;;;;;10.07;7.30;;;18.10;82.40;;;;;;5048518;28;20029;-55
2020/12/13 02:02:59;;;;;;;8.85;6.82;;;18.10;82.30;;;;;;5054913;28;20032;-56
2020/12/13 02:05:25;;;;;;;8.70;6.70;;;18.10;82.40;;;;;;5071806;28;20036;-52
2020/12/13 02:07:55;;;;;;;10.40;7.20;;;18.10;82.30;;;;;;5057405;28;20476;-47
2020/12/13 02:10:21;;;;;;;10.85;6.85;;;18.10;82.20;;;;;;5054257;28;20044;-53
2020/12/13 02:12:47;;;;;;;9.05;6.93;;;18.10;82.30;;;;;;5052336;28;20120;-53
2020/12/13 02:15:13;;;;;;;9.18;6.82;;;18.10;82.20;;;;;;5052438;28;20132;-53
2020/12/13 02:17:39;;;;;;;10.00;7.15;;;18.00;82.30;;;;;;5053464;28;20029;-51
2020/12/13 02:20:10;;;;;;;8.23;6.70;;;18.00;82.10;;;;;;5067897;28;20028;-58
2020/12/13 02:22:47;;;;;;;9.98;6.72;;;18.10;82.10;;;;;;5068966;28;20047;-58
2020/12/13 02:25:15;;;;;;;8.57;6.40;;;18.00;82.10;;;;;;5071559;28;20044;-57
2020/12/13 02:27:41;;;;;;;9.23;7.15;;;18.00;82.00;;;;;;5069651;28;20037;-51
2020/12/13 02:30:08;;;;;;;7.95;6.15;;;18.00;81.90;;;;;;5072236;28;20028;-55
2020/12/13 02:32:34;;;;;;;8.95;6.35;;;18.00;81.90;;;;;;5070640;28;20598;-58
2020/12/13 02:35:00;;;;;;;11.10;6.45;;;18.00;81.90;;;;;;5071854;28;20032;-52
2020/12/13 02:37:28;;;;;;;8.45;7.25;;;18.00;81.90;;;;;;5069463;28;20028;-50
2020/12/13 02:39:54;;;;;;;8.75;6.38;;;18.00;81.90;;;;;;5070566;28;20044;-61
2020/12/13 02:42:20;;;;;;;8.52;6.10;;;18.00;81.90;;;;;;5071547;28;20059;-57
2020/12/13 02:44:46;;;;;;;7.45;6.22;;;18.00;81.80;;;;;;5070572;28;20036;-59
2020/12/13 02:47:11;;;;;;;7.53;5.75;;;18.00;81.80;;;;;;5064733;28;20075;-58
2020/12/13 02:49:41;;;;;;;8.32;5.68;;;18.00;81.80;;;;;;5052184;28;20204;-54
2020/12/13 02:52:09;;;;;;;10.10;6.57;;;18.00;81.80;;;;;;5058425;28;20036;-52
2020/12/13 02:54:37;;;;;;;6.88;5.38;;;17.90;81.80;;;;;;5062202;28;20036;-52
2020/12/13 02:57:03;;;;;;;8.80;6.10;;;18.00;81.90;;;;;;5068491;28;20170;-54
2020/12/13 02:59:29;;;;;;;7.35;5.47;;;17.90;81.80;;;;;;5070798;28;20032;-53
2020/12/13 03:01:55;;;;;;;7.40;5.20;;;18.00;81.80;;;;;;5053166;28;20094;-51
2020/12/13 03:04:20;;;;;;;8.05;6.20;;;17.90;81.80;;;;;;5051516;28;20247;-57
2020/12/13 03:06:46;;;;;;;7.47;5.75;;;18.00;81.70;;;;;;5061421;28;20523;-49
2020/12/13 03:09:12;;;;;;;8.25;5.88;;;17.90;81.80;;;;;;5070019;28;20055;-51
2020/12/13 03:11:38;;;;;;;7.38;5.95;;;17.90;81.80;;;;;;5059266;28;20052;-57
2020/12/13 03:14:04;;;;;;;8.10;5.72;;;17.90;81.80;;;;;;5051054;28;20020;-55
2020/12/13 03:16:29;;;;;;;7.75;5.68;;;17.90;81.80;;;;;;5051155;28;20029;-49
2020/12/13 03:18:55;;;;;;;6.25;5.18;;;18.00;81.80;;;;;;5053186;28;20507;-48
2020/12/13 03:21:21;;;;;;;6.88;5.35;;;17.90;81.90;;;;;;5066294;28;20058;-57
2020/12/13 03:23:46;;;;;;;7.93;5.35;;;17.90;82.00;;;;;;5054426;28;20477;-58
2020/12/13 03:26:12;;;;;;;7.15;5.45;;;17.90;81.80;;;;;;5059560;28;20608;-55
2020/12/13 03:28:38;;;;;;;7.80;5.80;;;17.90;81.60;;;;;;5049578;28;20144;-56
2020/12/13 03:31:30;;;;;;;8.68;5.68;;;17.90;81.70;;;;;;5312306;22;20230;31
2020/12/13 03:33:56;;;;;;;7.22;4.93;;;17.90;81.70;;;;;;4969459;28;20051;-57
2020/12/13 03:36:21;;;;;;;8.55;5.28;;;17.90;81.80;;;;;;4972173;28;20181;-52
2020/12/13 03:38:47;;;;;;;8.02;5.00;;;17.90;81.80;;;;;;4972242;28;20058;-59
2020/12/13 03:41:13;;;;;;;7.75;4.70;;;17.90;81.90;;;;;;4972224;28;20126;-56
2020/12/13 03:43:39;;;;;;;8.30;5.70;;;17.90;81.70;;;;;;4971900;28;20043;-50
2020/12/13 03:46:04;;;;;;;7.80;5.03;;;17.90;81.70;;;;;;4971765;28;20022;-59
2020/12/13 03:48:30;;;;;;;6.47;5.18;;;17.90;81.70;;;;;;4972000;28;20518;-45
2020/12/13 03:50:56;;;;;;;6.78;4.60;;;17.90;81.60;;;;;;4971902;28;20106;-48
2020/12/13 03:53:21;;;;;;;6.78;5.13;;;17.90;81.80;;;;;;4971763;28;20491;-57
2020/12/13 03:55:47;;;;;;;6.80;5.18;;;17.90;81.80;;;;;;4970193;28;20030;-51
2020/12/13 03:58:13;;;;;;;7.10;5.00;;;17.80;81.80;;;;;;4971911;28;20038;-56
2020/12/13 04:00:39;;;;;;;7.68;4.63;;;17.90;81.80;;;;;;4971598;28;20621;-54
2020/12/13 04:03:05;;;;;;;6.70;4.82;;;17.90;81.80;;;;;;4971340;28;20589;-58
2020/12/13 04:05:32;;;;;;;5.45;4.28;;;17.80;81.70;;;;;;4970319;28;20042;-52
2020/12/13 04:07:58;;;;;;;6.13;4.35;;;18.50;82.00;;;;;;4971651;28;20035;-54
2020/12/13 04:10:25;;;;;;;6.50;4.50;;;17.80;81.80;;;;;;4971211;28;20053;-50
2020/12/13 04:12:51;;;;;;;6.82;3.95;;;17.80;81.80;;;;;;4969966;28;20035;-58
2020/12/13 04:15:17;;;;;;;6.45;4.30;;;17.80;81.70;;;;;;4971181;28;20089;-53
2020/12/13 04:17:46;;;;;;;6.32;4.50;;;17.80;81.90;;;;;;4971111;28;20499;-49
2020/12/13 04:20:13;;;;;;;5.70;4.60;;;17.80;81.80;;;;;;4971496;28;20031;-53
2020/12/13 04:22:38;;;;;;;6.93;4.35;;;17.80;81.90;;;;;;4971172;28;20047;-54
2020/12/13 04:25:05;;;;;;;6.47;4.35;;;17.80;81.70;;;;;;4970220;28;20046;-51
2020/12/13 04:27:30;;;;;;;5.93;4.78;;;17.80;81.80;;;;;;4970973;28;20027;-50
2020/12/13 04:29:57;;;;;;;5.53;4.43;;;17.70;81.70;;;;;;4970770;28;20039;-54
2020/12/13 04:32:23;;;;;;;7.35;4.68;;;17.80;81.70;;;;;;4980479;28;20057;-55
2020/12/13 04:34:49;;;;;;;4.82;4.22;;;17.70;81.60;;;;;;4990208;28;20394;-55
2020/12/13 04:37:15;;;;;;;5.82;3.88;;;17.70;81.50;;;;;;4990239;28;20041;-59
2020/12/13 04:39:41;;;;;;;5.10;4.22;;;17.70;81.50;;;;;;4990118;28;20066;-47
2020/12/13 04:42:07;;;;;;;5.38;3.95;;;17.70;81.40;;;;;;4990158;28;20075;-53
2020/12/13 04:44:33;;;;;;;5.68;4.45;;;17.70;81.50;;;;;;4989881;28;20096;-55
2020/12/13 04:47:05;;;;;;;6.43;3.97;;;17.70;81.60;;;;;;4990253;28;20089;-48
2020/12/13 04:49:33;;;;;;;8.30;4.13;;;17.70;81.60;;;;;;4989887;28;20089;-59
2020/12/13 04:52:00;;;;;;;4.47;3.45;;;17.70;81.60;;;;;;4989769;28;20062;-51
2020/12/13 04:54:27;;;;;;;5.22;3.97;;;17.70;81.80;;;;;;4989963;28;20031;-50
2020/12/13 04:56:55;;;;;;;4.72;4.18;;;17.70;81.70;;;;;;4990112;28;20430;-51
2020/12/13 04:59:21;;;;;;;5.28;4.03;;;17.70;81.70;;;;;;4989720;28;20030;-53
2020/12/13 05:01:47;;;;;;;5.07;3.50;;;17.70;81.50;;;;;;4990048;28;20057;-56
2020/12/13 05:04:14;;;;;;;4.82;4.10;;;17.70;81.50;;;;;;4990013;28;20305;-53
2020/12/13 05:06:42;;;;;;;5.20;3.40;;;17.70;81.60;;;;;;4989474;28;20073;-49
2020/12/13 05:09:09;;;;;;;5.10;3.80;;;17.70;81.60;;;;;;4990028;28;20154;-55
2020/12/13 05:11:42;;;;;;;6.80;3.85;;;17.70;81.70;;;;;;4989748;28;20034;-48
2020/12/13 05:14:08;;;;;;;5.85;3.90;;;17.60;81.50;;;;;;4989546;28;20038;-49
2020/12/13 05:16:34;;;;;;;4.38;3.25;;;17.60;81.40;;;;;;4989652;28;20038;-53
2020/12/13 05:19:00;;;;;;;4.57;3.50;;;17.70;81.40;;;;;;4989384;28;20082;-57
2020/12/13 05:21:27;;;;;;;6.20;3.97;;;17.70;81.60;;;;;;4989403;28;20027;-50
2020/12/13 05:23:53;;;;;;;5.63;3.88;;;17.60;81.50;;;;;;4989334;28;20034;-53
2020/12/13 05:26:20;;;;;;;4.88;3.92;;;17.60;81.50;;;;;;4989275;28;20034;-61
2020/12/13 05:28:51;;;;;;;6.28;3.88;;;17.60;81.50;;;;;;4989633;28;20026;-52
2020/12/13 05:31:23;;;;;;;4.57;3.72;;;17.60;81.60;;;;;;4989249;28;20030;-51
2020/12/13 05:33:52;;;;;;;4.70;3.25;;;17.60;81.60;;;;;;4971853;28;20045;-56
2020/12/13 05:36:18;;;;;;;6.68;3.38;;;17.60;81.50;;;;;;4971531;28;20113;-51
2020/12/13 05:38:45;;;;;;;4.13;3.58;;;17.60;81.50;;;;;;4989467;28;20394;-58
2020/12/13 05:41:13;;;;;;;5.82;4.28;;;17.60;81.40;;;;;;4971617;28;20046;-56
2020/12/13 05:43:46;;;;;;;4.72;3.05;;;17.70;83.20;;;;;;4989143;28;20530;-55
2020/12/13 05:51:39;;;;;;;4.32;3.10;;;17.50;81.20;;;;;;4989136;28;20461;-51
2020/12/13 05:54:22;;;;;;;4.57;3.33;;;17.60;81.50;;;;;;4989486;28;20205;-55
2020/12/13 05:56:52;;;;;;;3.97;3.03;;;17.50;81.40;;;;;;4971790;28;20050;-50
2020/12/13 05:59:18;;;;;;;4.13;3.40;;;17.50;81.40;;;;;;4971530;28;20037;-54
2020/12/13 06:01:48;;;;;;;6.00;3.80;;;17.50;81.30;;;;;;4981841;28;20038;-53
2020/12/13 06:04:16;;;;;;;3.92;3.08;;;17.50;81.20;;;;;;4986964;28;20039;-46
2020/12/13 06:06:45;;;;;;;5.35;3.50;;;17.50;81.30;;;;;;4970084;28;20038;-55
2020/12/13 06:09:14;;;;;;;3.70;3.03;;;17.50;81.30;;;;;;4970355;28;20030;-52
2020/12/13 06:11:46;;;;;;;3.33;2.75;;;17.50;81.40;;;;;;4984360;28;20035;-55
2020/12/13 06:14:11;;;;;;;4.30;3.28;;;17.50;81.30;;;;;;4987839;28;20121;-55
2020/12/13 06:16:38;;;;;;;4.57;3.25;;;17.50;81.30;;;;;;4987887;28;20121;-54
2020/12/13 06:19:08;;;;;;;3.20;2.65;;;17.50;81.30;;;;;;4989043;28;20178;-51
2020/12/13 06:21:34;;;;;;;3.67;2.60;;;17.50;81.10;;;;;;4976044;28;20043;-60
2020/12/13 06:24:01;;;;;;;5.22;3.40;;;17.50;81.10;;;;;;4988048;28;20038;-53
2020/12/13 06:26:28;;;;;;;4.00;2.90;;;17.50;81.10;;;;;;4987653;28;20034;-52
2020/12/13 06:28:54;;;;;;;4.93;2.78;;;17.50;81.40;;;;;;4988856;28;20042;-50
2020/12/13 06:31:20;;;;;;;4.35;3.25;;;17.50;81.30;;;;;;4987331;28;20401;-47
2020/12/13 06:33:47;;;;;;;4.18;2.88;;;17.50;81.20;;;;;;4989307;28;20121;-61
2020/12/13 06:36:13;;;;;;;4.22;2.95;;;17.50;81.20;;;;;;4969854;28;20038;-54
2020/12/13 06:38:40;;;;;;;3.95;2.58;;;17.50;81.20;;;;;;4971632;28;20030;-56
2020/12/13 06:41:12;;;;;;;4.15;3.38;;;17.40;81.20;;;;;;4986647;28;20060;-51
2020/12/13 06:43:49;;;;;;;3.10;2.10;;;17.50;81.10;;;;;;4970897;28;20034;-55
2020/12/13 06:46:16;;;;;;;4.35;3.10;;;17.40;81.10;;;;;;4987799;28;20096;-54
2020/12/13 06:48:45;;;;;;;4.70;2.97;;;17.40;81.30;;;;;;4990267;28;20382;-59
2020/12/13 06:51:18;;;;;;;4.75;2.95;;;17.50;81.20;;;;;;4991310;28;20030;-58
2020/12/13 06:53:44;;;;;;;6.35;3.22;;;17.40;81.10;;;;;;4992055;28;20129;-55
2020/12/13 06:56:11;;;;;;;4.05;2.78;;;17.50;81.20;;;;;;4990624;28;20381;-51
2020/12/13 06:58:42;;;;;;;4.38;2.15;;;17.40;81.20;;;;;;4991984;28;20034;-54
2020/12/13 07:01:21;;;;;;;3.88;2.60;;;17.40;81.10;;;;;;4991028;28;20038;-54
2020/12/13 07:03:47;;;;;;;3.67;2.47;;;17.40;81.10;;;;;;4991084;28;20184;-54
2020/12/13 07:06:22;;;;;;;4.40;2.80;;;17.40;81.20;;;;;;4973073;28;20550;-49
2020/12/13 07:08:53;;;;;;;4.13;2.50;;;17.40;81.70;;;;;;4974255;28;20495;-51
2020/12/13 07:11:22;;;;;;;3.65;2.63;;;17.40;81.10;;;;;;4972174;28;20117;-52
2020/12/13 07:13:49;;;;;;;3.53;2.22;;;17.40;81.30;;;;;;4972763;28;20073;-49
2020/12/13 07:16:34;;;;;;;3.80;2.90;;;17.40;81.30;;;;;;4973110;28;20042;-51
2020/12/13 07:19:11;;;;;;;3.28;2.22;;;17.50;81.30;;;;;;4974014;28;20037;-49
2020/12/13 07:21:38;;;;;;;3.25;2.30;;;17.50;81.40;;;;;;4989817;28;20101;-53
2020/12/13 07:24:05;;;;;;;2.40;2.17;;;17.50;81.40;;;;;;4991137;28;20112;-58
2020/12/13 07:26:33;;;;;;;3.05;2.50;;;17.50;81.40;;;;;;4990811;28;20038;-56
2020/12/13 07:29:00;;;;;;;3.95;1.90;;;17.50;81.30;;;;;;4991534;28;20058;-51
2020/12/13 07:31:35;;;;;;;3.88;2.35;;;17.50;81.30;;;;;;4991246;28;20251;-61
2020/12/13 07:34:04;;;;;;;3.38;2.50;;;17.50;81.30;;;;;;4973166;28;20125;-55
2020/12/13 07:36:31;;;;;;;3.67;2.42;;;17.50;81.20;;;;;;4990068;28;20406;-51
2020/12/13 07:38:56;;;;;;;3.28;2.17;;;17.50;81.00;;;;;;4991177;28;20034;-53
2020/12/13 07:41:25;;;;;;;3.47;2.35;;;17.50;81.20;;;;;;4990627;28;20050;-55
2020/12/13 07:44:04;;;;;;;3.72;2.05;;;17.50;81.00;;;;;;4966988;28;20497;-52
2020/12/13 07:46:31;;;;;;;3.17;2.25;;;17.50;81.10;;;;;;4989282;28;20549;-53
2020/12/13 07:49:17;;;;;;;3.05;2.42;;;17.50;81.00;;;;;;4990363;28;20030;-53
2020/12/13 07:51:45;;;;;;;3.15;2.00;;;17.50;81.00;;;;;;4990315;28;20050;-52
2020/12/13 07:54:21;;;;;;;2.92;2.28;;;17.50;81.10;;;;;;4990813;28;20026;-56
2020/12/13 07:56:49;;;;;;;4.03;2.17;;;17.50;81.00;;;;;;4989250;28;20569;-53
2020/12/13 07:59:22;;;;;;;3.38;2.10;;;17.50;81.10;;;;;;4990595;28;20040;-57
2020/12/13 08:01:49;;;;;;;2.70;2.30;;;17.40;81.00;;;;;;4972067;28;20101;-54
2020/12/13 08:04:28;;;;;;;3.05;1.90;;;17.60;81.10;;;;;;4990719;28;20052;-56
2020/12/13 08:07:01;;;;;;;3.65;2.10;;;17.60;81.20;;;;;;4989781;28;20076;-50
2020/12/13 08:09:27;;;;;;;3.80;2.20;;;17.60;81.00;;;;;;4969839;28;20092;-57
2020/12/13 08:11:53;;;;;;;4.07;2.00;;;17.60;81.10;;;;;;4988057;28;20026;-56
2020/12/13 08:14:24;;;;;;;3.15;2.13;;;17.60;81.10;;;;;;4988574;28;20046;-51
2020/12/13 08:16:51;;;;;;;3.28;2.10;;;17.60;81.00;;;;;;4989717;28;20176;-58
2020/12/13 08:19:23;;;;;;;2.97;1.98;;;17.60;81.10;;;;;;4990887;28;20088;-54
2020/12/13 08:22:05;;;;;;;3.15;2.40;;;17.60;81.20;;;;;;4989418;28;20046;-58
2020/12/13 08:24:32;;;;;;;2.88;2.10;;;17.60;81.10;;;;;;4990529;28;20030;-54
2020/12/13 08:27:02;;;;;;;3.67;2.35;;;17.70;81.20;;;;;;4989233;28;20118;-54
2020/12/13 08:29:31;;;;;;;4.10;2.03;;;17.60;81.20;;;;;;4989925;28;20041;-53
2020/12/13 08:31:58;;;;;;;2.67;1.80;;;17.70;81.40;;;;;;4989861;28;20481;-52
2020/12/13 08:34:29;;;;;;;4.55;2.00;;;17.70;80.50;;;;;;4990212;28;20034;-51
2020/12/13 08:36:59;;;;;;;3.42;2.17;;;17.60;80.30;;;;;;4967286;28;20061;-52
2020/12/13 08:39:27;;;;;;;5.90;1.70;;;17.60;79.90;;;;;;4986793;28;20038;-54
2020/12/13 08:41:53;;;;;;;8.38;1.90;;;17.70;81.10;;;;;;4988043;28;20515;-58
2020/12/13 08:44:48;;;;;;;2.83;1.75;;;17.70;81.20;;;;;;4989155;28;20209;-56
2020/12/13 08:47:18;;;;;;;3.53;1.65;;;17.70;81.10;;;;;;4981223;28;20495;-57
2020/12/13 08:49:48;;;;;;;5.38;2.10;;;17.70;81.20;;;;;;4971341;28;20372;-52
2020/12/13 08:52:22;;;;;;;8.55;2.40;;;17.70;81.30;;;;;;4987719;28;20096;-56
2020/12/13 08:54:50;;;;;;;3.40;1.58;;;17.70;81.30;;;;;;4990184;28;20042;-53
2020/12/13 08:57:32;;;;;;;4.40;2.05;;;17.80;81.30;;;;;;4988939;28;20034;-57
2020/12/13 09:00:04;;;;;;;1.83;1.58;;;17.80;81.30;;;;;;4988798;28;20145;-50
2020/12/13 09:02:29;;;;;;;3.65;1.48;;;17.80;81.30;;;;;;4989638;28;20200;-57
2020/12/13 09:04:59;;;;;;;1.98;1.77;;;17.80;81.30;;;;;;4988581;28;20498;-57
2020/12/13 09:07:31;;;;;;;5.65;1.70;;;17.90;81.40;;;;;;4986519;28;20074;-49
2020/12/13 09:10:10;;;;;;;8.32;2.20;;;17.90;81.50;;;;;;4988837;28;20034;-54
2020/12/13 09:12:37;;;;;;;7.07;1.73;;;17.90;81.90;;;;;;4992174;28;20033;-45
2020/12/13 09:15:14;;;;;;;4.20;1.55;;;18.00;81.80;;;;;;4987308;28;20038;-53
2020/12/13 09:17:40;;;;;;;3.63;1.75;;;18.00;81.80;;;;;;4987348;28;20061;-48
2020/12/13 09:20:07;;;;;;;5.88;2.00;;;18.00;81.80;;;;;;4988485;28;20490;-54
2020/12/13 09:22:33;;;;;;;9.65;1.80;;;18.10;82.40;;;;;;4988441;28;20038;-56
2020/12/13 09:25:00;;;;;;;7.40;2.25;;;18.10;82.40;;;;;;4988746;28;20076;-54
2020/12/13 09:27:27;;;;;;;7.60;1.55;;;18.20;82.50;;;;;;4984537;28;20030;-58
2020/12/13 09:29:53;;;;;;;5.78;1.92;;;18.20;82.90;;;;;;4976732;28;20054;-57
2020/12/13 09:32:21;;;;;;;7.53;1.55;;;18.20;82.90;;;;;;4980567;28;20167;-53
2020/12/13 09:34:47;;;;;;;6.97;2.40;;;18.30;83.20;;;;;;4988426;28;20153;-54
2020/12/13 09:37:16;;;;;;;5.03;1.88;;;18.30;83.40;;;;;;4989341;28;20038;-56
2020/12/13 09:39:41;;;;;;;6.35;1.75;;;18.30;83.60;;;;;;4987113;28;20061;-56
2020/12/13 09:42:08;;;;;;;6.40;1.85;;;18.40;84.10;;;;;;4979658;28;20510;-58
2020/12/13 09:44:33;;;;;;;5.40;1.65;;;18.40;83.60;;;;;;4988014;28;20126;-48
2020/12/13 09:47:01;;;;;;;5.65;2.00;;;18.40;83.50;;;;;;4992308;28;20042;-49
2020/12/13 09:49:28;;;;;;;4.78;1.83;;;18.50;83.70;;;;;;4981704;28;20073;-53
2020/12/13 09:51:57;;;;;;;7.18;1.33;;;18.50;83.40;;;;;;4986891;28;20452;-51
2020/12/13 09:54:24;;;;;;;9.20;2.50;;;18.50;83.20;;;;;;4986845;28;20122;-58
2020/12/13 09:56:50;;;;;;;5.38;1.65;;;18.50;81.00;;;;;;4984696;28;20438;-56
2020/12/13 09:59:15;;;;;;;4.07;1.42;;;18.50;81.20;;;;;;4969274;28;20038;-52
2020/12/13 10:01:41;;;;;;;11.82;1.48;;;18.50;80.00;;;;;;4984122;28;20066;-46
2020/12/13 10:04:07;;;;;;;3.85;1.30;;;18.50;76.90;;;;;;4977625;28;20042;-50
2020/12/13 10:09:12;;;;;;;6.10;1.30;;;18.60;80.90;;;;;;4988943;28;20393;-53
2020/12/13 10:11:39;;;;;;;7.80;1.58;;;18.60;82.40;;;;;;4970967;28;20410;-62
2020/12/13 10:14:08;;;;;;;5.55;1.25;;;18.70;82.50;;;;;;4989162;28;20026;-59
2020/12/13 10:16:35;;;;;;;6.25;1.65;;;18.80;81.90;;;;;;4964677;28;20394;-51
2020/12/13 10:19:01;;;;;;;5.25;1.98;;;18.80;81.90;;;;;;4988240;28;20030;-60
2020/12/13 10:21:29;;;;;;;2.63;1.13;;;18.80;75.80;;;;;;4988248;28;20065;-56
2020/12/13 10:23:55;;;;;;;5.60;1.25;;;18.70;74.50;;;;;;4990362;28;20022;-53
2020/12/13 10:26:26;;;;;;;2.13;0.90;;;18.70;77.20;;;;;;4991444;28;20223;-59
2020/12/13 10:28:53;;;;;;;3.25;1.23;;;18.70;78.00;;;;;;4990440;28;20045;-49
2020/12/13 10:31:19;;;;;;;2.42;1.15;;;18.70;79.20;;;;;;4991782;28;20542;-54
2020/12/13 10:33:45;;;;;;;4.13;0.90;;;18.80;79.30;;;;;;4991992;28;20085;-48
2020/12/13 10:36:13;;;;;;;4.72;1.35;;;18.70;79.00;;;;;;4991374;28;20511;-57
2020/12/13 10:38:39;;;;;;;4.75;1.08;;;18.80;79.10;;;;;;4991798;28;20053;-54
2020/12/13 10:41:09;;;;;;;2.50;1.20;;;18.80;79.70;;;;;;4991660;28;20060;-57
2020/12/13 10:43:36;;;;;;;7.03;1.08;;;18.80;79.70;;;;;;4990208;28;20430;-54
2020/12/13 10:46:03;;;;;;;5.80;0.82;;;18.80;79.70;;;;;;4992957;28;20038;-55
2020/12/13 10:48:30;;;;;;;3.35;0.80;;;18.80;79.50;;;;;;4991225;28;20031;-54
2020/12/13 10:50:56;;;;;;;6.45;1.30;;;18.80;79.40;;;;;;4991992;28;20027;-54
2020/12/13 10:53:21;;;;;;;2.42;0.73;;;18.90;79.60;;;;;;4991003;28;20121;-48
2020/12/13 10:55:47;;;;;;;2.75;1.02;;;18.90;79.80;;;;;;5005517;28;20487;-53
2020/12/13 10:58:13;;;;;;;3.75;0.73;;;18.90;80.10;;;;;;4993099;28;20398;-55
2020/12/13 11:00:38;;;;;;;2.75;0.88;;;18.90;79.70;;;;;;4990648;28;20158;-55
2020/12/13 11:03:04;;;;;;;2.10;1.10;;;18.90;79.30;;;;;;4991906;28;20104;-60
2020/12/13 11:05:30;;;;;;;1.55;0.95;;;18.90;79.10;;;;;;4974144;28;20117;-57
2020/12/13 11:07:56;;;;;;;2.95;1.10;;;19.00;79.60;;;;;;4974101;28;20546;-57
2020/12/13 11:10:21;;;;;;;2.17;0.75;;;19.00;79.40;;;;;;4991931;28;20495;-49
2020/12/13 11:12:47;;;;;;;2.08;0.88;;;19.00;79.30;;;;;;4991978;28;20034;-54
2020/12/13 11:15:13;;;;;;;1.85;0.98;;;19.00;79.40;;;;;;4991878;28;20486;-52
2020/12/13 11:17:38;;;;;;;3.88;0.70;;;19.10;79.40;;;;;;4991771;28;20387;-53
2020/12/13 11:20:04;;;;;;;1.40;0.60;;;19.10;79.40;;;;;;4974083;28;20372;-50
2020/12/13 11:22:31;;;;;;;2.60;0.73;;;19.10;79.80;;;;;;4991366;28;20030;-59
2020/12/13 11:24:56;;;;;;;3.00;0.70;;;19.10;79.40;;;;;;4991374;28;20034;-55
2020/12/13 11:27:22;;;;;;;1.20;0.60;;;19.10;79.20;;;;;;4991285;28;20100;-52
2020/12/13 11:29:48;;;;;;;1.35;0.63;;;19.20;79.40;;;;;;4991758;28;20121;-51
2020/12/13 11:32:13;;;;;;;2.75;0.60;;;19.20;79.30;;;;;;4991103;28;20054;-55
2020/12/13 11:34:39;;;;;;;0.80;0.50;;;19.20;78.90;;;;;;4991045;28;20027;-49
2020/12/13 11:37:06;;;;;;;2.45;0.95;;;19.20;79.10;;;;;;4991162;28;20038;-52
2020/12/13 11:39:33;;;;;;;1.55;0.68;;;19.20;79.30;;;;;;4973769;28;20521;-49
2020/12/13 11:42:00;;;;;;;1.33;0.60;;;19.20;78.90;;;;;;4991642;28;20104;-53
2020/12/13 11:44:26;;;;;;;3.10;0.43;;;19.30;78.70;;;;;;4991143;28;20034;-50
2020/12/13 11:46:53;;;;;;;3.58;0.73;;;19.30;78.40;;;;;;4991366;28;20100;-55
2020/12/13 11:49:19;;;;;;;1.52;0.60;;;19.30;78.20;;;;;;4991045;28;20487;-62
2020/12/13 11:51:45;;;;;;;1.45;0.70;;;19.30;78.30;;;;;;4991119;28;20026;-57
2020/12/13 11:54:12;;;;;;;1.67;0.68;;;19.30;77.90;;;;;;4991115;28;20030;-48
2020/12/13 11:56:37;;;;;;;1.52;0.60;;;19.30;78.00;;;;;;4990983;28;20034;-53
2020/12/13 11:59:03;;;;;;;1.40;0.50;;;19.30;77.80;;;;;;4990969;28;20042;-57
2020/12/13 12:01:29;;;;;;;2.60;0.70;;;19.30;77.70;;;;;;4990790;28;20212;-53
2020/12/13 12:03:55;;;;;;;1.40;0.75;;;19.30;77.60;;;;;;4990831;28;20175;-56
2020/12/13 12:06:21;;;;;;;3.33;0.50;;;19.30;77.40;;;;;;4990554;28;20038;-51
2020/12/13 12:08:46;;;;;;;0.85;0.45;;;19.30;77.30;;;;;;4990508;28;20031;-49
2020/12/13 12:11:38;;;;;;;1.38;0.77;;;19.30;77.20;;;;;;4990816;28;20026;-51
2020/12/13 12:14:05;;;;;;;1.98;0.68;;;19.30;77.10;;;;;;4988153;28;20042;-56
2020/12/13 12:16:31;;;;;;;2.25;0.50;;;19.30;77.30;;;;;;4972563;28;20069;-48
2020/12/13 12:18:59;;;;;;;2.22;0.40;;;19.30;77.30;;;;;;4990473;28;20038;-55
2020/12/13 12:21:27;;;;;;;1.08;0.60;;;19.20;77.30;;;;;;4972606;28;20380;-50
2020/12/13 12:23:53;;;;;;;1.42;0.40;;;19.20;77.30;;;;;;4969652;28;20414;-54
2020/12/13 12:26:22;;;;;;;1.88;0.60;;;19.20;77.40;;;;;;4984282;28;20046;-50
2020/12/13 12:28:49;;;;;;;1.80;0.60;;;19.20;77.30;;;;;;4987600;28;20057;-55
2020/12/13 12:31:19;;;;;;;2.63;0.63;;;19.20;77.20;;;;;;4984630;28;20046;-55
2020/12/13 12:33:45;;;;;;;1.50;0.50;;;19.20;77.90;;;;;;4983646;28;20194;-58
2020/12/13 12:36:19;;;;;;;2.67;0.73;;;19.20;76.80;;;;;;4984027;28;20498;-53
2020/12/13 12:38:45;;;;;;;1.55;0.65;;;19.20;76.10;;;;;;4978584;28;20038;-47
2020/12/13 12:41:16;;;;;;;1.88;0.73;;;19.20;77.20;;;;;;4986644;28;20038;-55
2020/12/13 12:43:42;;;;;;;3.25;0.90;;;19.60;78.50;;;;;;4983064;28;20077;-58
2020/12/13 12:46:09;;;;;;;1.45;0.70;;;19.30;79.70;;;;;;4987404;28;20030;-59
2020/12/13 12:48:35;;;;;;;2.05;0.60;;;19.40;80.30;;;;;;4982012;28;20038;-58
2020/12/13 12:51:05;;;;;;;2.42;0.80;;;19.40;79.10;;;;;;4985303;28;20026;-56
2020/12/13 12:53:31;;;;;;;4.00;0.70;;;19.40;78.80;;;;;;4970713;28;20111;-49
2020/12/13 12:55:57;;;;;;;18.13;1.52;;;19.40;80.30;;;;;;4988408;28;20085;-57
2020/12/13 12:58:25;;;;;;;14.20;2.50;;;19.40;81.50;;;;;;4980637;28;20177;-53